createdAt,value
2018-10-16T00:00:02.932Z,0
2018-10-16T00:05:03.241Z,0
2018-10-16T00:10:02.923Z,0
2018-10-16T00:15:02.561Z,0
2018-10-16T00:20:03.211Z,0
2018-10-16T00:25:02.803Z,0
2018-10-16T00:30:02.484Z,0
2018-10-16T00:35:03.133Z,0
2018-10-16T00:40:02.798Z,0
2018-10-16T00:45:02.396Z,0
2018-10-16T00:50:03.030Z,0
2018-10-16T00:55:02.874Z,0
2018-10-16T01:00:03.332Z,0
2018-10-16T01:05:02.908Z,0
2018-10-16T01:10:02.803Z,0
2018-10-16T01:15:02.473Z,0
2018-10-16T01:20:03.383Z,0
2018-10-16T01:25:03.146Z,0
2018-10-16T01:30:02.779Z,0
2018-10-16T01:35:02.400Z,0
2018-10-16T01:40:03.293Z,0
2018-10-16T01:45:02.950Z,0
2018-10-16T01:50:02.600Z,0
2018-10-16T01:55:03.200Z,0
2018-10-16T02:00:02.754Z,0
2018-10-16T02:05:02.436Z,0
2018-10-16T02:10:03.128Z,0
2018-10-16T02:15:02.734Z,0
2018-10-16T02:20:02.389Z,0
2018-10-16T02:25:03.225Z,0
2018-10-16T02:30:02.780Z,0
2018-10-16T02:35:02.471Z,0
2018-10-16T02:40:03.168Z,0
2018-10-16T02:45:02.792Z,0
2018-10-16T02:50:02.391Z,0
2018-10-16T02:55:03.056Z,0
2018-10-16T03:00:03.473Z,0
2018-10-16T03:05:03.177Z,0
2018-10-16T03:10:02.828Z,0
2018-10-16T03:15:02.480Z,0
2018-10-16T03:20:03.211Z,0
2018-10-16T03:25:02.806Z,0
2018-10-16T03:30:02.462Z,0
2018-10-16T03:35:03.046Z,0
2018-10-16T03:40:02.798Z,0
2018-10-16T03:45:02.530Z,0
2018-10-16T03:50:03.185Z,0
2018-10-16T03:55:02.717Z,0
2018-10-16T04:00:03.321Z,0
2018-10-16T04:05:02.984Z,0
2018-10-16T04:10:02.654Z,0
2018-10-16T04:15:03.390Z,0
2018-10-16T04:20:03.023Z,0
2018-10-16T04:25:02.648Z,0
2018-10-16T04:30:03.297Z,0
2018-10-16T04:35:02.795Z,0
2018-10-16T04:40:02.502Z,0
2018-10-16T04:45:03.228Z,0
2018-10-16T04:50:02.787Z,0
2018-10-16T04:55:02.582Z,0
2018-10-16T05:00:02.551Z,0
2018-10-16T05:05:03.241Z,0
2018-10-16T05:10:02.865Z,0
2018-10-16T05:15:02.494Z,0
2018-10-16T05:20:03.042Z,0
2018-10-16T05:25:02.628Z,1
2018-10-16T05:30:03.295Z,2
2018-10-16T05:35:02.953Z,6
2018-10-16T05:40:02.658Z,14
2018-10-16T05:45:03.317Z,26
2018-10-16T05:50:02.963Z,37
2018-10-16T05:55:02.546Z,51
2018-10-16T06:00:03.097Z,65
2018-10-16T06:05:02.898Z,104
2018-10-16T06:10:02.748Z,269
2018-10-16T06:15:02.530Z,400
2018-10-16T06:20:03.354Z,532
2018-10-16T06:25:03.144Z,795
2018-10-16T06:30:02.982Z,941
2018-10-16T06:35:02.891Z,1000
2018-10-16T06:40:02.839Z,1000
2018-10-16T06:45:02.735Z,1000
2018-10-16T06:50:02.472Z,2000
2018-10-16T06:55:03.251Z,2000
2018-10-16T07:00:03.384Z,2000
2018-10-16T07:05:03.126Z,3000
2018-10-16T07:10:02.796Z,3000
2018-10-16T07:15:03.656Z,3000
2018-10-16T07:20:02.858Z,3000
2018-10-16T07:25:02.432Z,3000
2018-10-16T07:30:03.263Z,3000
2018-10-16T07:35:03.306Z,4000
2018-10-16T07:40:03.068Z,5000
2018-10-16T07:45:02.752Z,5000
2018-10-16T07:50:02.768Z,6000
2018-10-16T07:55:03.358Z,6000
2018-10-16T08:00:02.896Z,6000
2018-10-16T08:05:02.543Z,12000
2018-10-16T08:10:03.371Z,7000
2018-10-16T08:15:02.921Z,8000
2018-10-16T08:20:02.503Z,18000
2018-10-16T08:25:03.111Z,7000
2018-10-16T08:30:02.942Z,26000
2018-10-16T08:35:03.070Z,22000
2018-10-16T08:40:02.815Z,16000
2018-10-16T08:45:02.642Z,35000
2018-10-16T08:50:03.189Z,38000
2018-10-16T08:55:03.287Z,14000
2018-10-16T09:00:02.660Z,8000
2018-10-16T09:05:03.303Z,8000
2018-10-16T09:10:02.949Z,6000
2018-10-16T09:15:02.491Z,6000
2018-10-16T09:20:03.043Z,6000
2018-10-16T09:25:02.819Z,11000
2018-10-16T09:30:03.204Z,15000
2018-10-16T09:35:02.870Z,10000
2018-10-16T09:40:02.528Z,12000
2018-10-16T09:45:03.142Z,10000
2018-10-16T09:50:02.648Z,10000
2018-10-16T09:55:03.284Z,10000
2018-10-16T10:00:02.891Z,12000
2018-10-16T10:05:02.529Z,11000
2018-10-16T10:10:03.325Z,13000
2018-10-16T10:15:02.928Z,34000
2018-10-16T10:20:02.559Z,26000
2018-10-16T10:25:03.323Z,13000
2018-10-16T10:30:03.165Z,13000
2018-10-16T10:35:02.952Z,26000
2018-10-16T10:40:03.003Z,16000
2018-10-16T10:45:02.656Z,33000
2018-10-16T10:50:03.609Z,33000
2018-10-16T10:55:02.407Z,27000
2018-10-16T11:00:02.974Z,27000
2018-10-16T11:05:02.632Z,48000
2018-10-16T11:10:03.292Z,23000
2018-10-16T11:15:03.129Z,25000
2018-10-16T11:20:03.176Z,25000
2018-10-16T11:25:02.801Z,12000
2018-10-16T11:30:02.639Z,11000
2018-10-16T11:35:02.690Z,11000
2018-10-16T11:40:02.416Z,10000
2018-10-16T11:45:03.327Z,10000
2018-10-16T11:50:03.488Z,9000
2018-10-16T11:55:02.501Z,17000
2018-10-16T12:00:03.092Z,12000
2018-10-16T12:05:02.676Z,9000
2018-10-16T12:10:02.412Z,7000
2018-10-16T12:15:02.939Z,19000
2018-10-16T12:20:02.773Z,26000
2018-10-16T12:25:03.143Z,7000
2018-10-16T12:30:03.064Z,3000
2018-10-16T12:35:02.700Z,4000
2018-10-16T12:40:02.655Z,5000
2018-10-16T12:45:02.870Z,26000
2018-10-16T12:50:03.064Z,32000
2018-10-16T12:55:02.768Z,31000
2018-10-16T13:00:02.619Z,31000
2018-10-16T13:05:02.835Z,31000
2018-10-16T13:10:03.016Z,30000
2018-10-16T13:15:02.564Z,28000
2018-10-16T13:20:03.308Z,26000
2018-10-16T13:25:03.335Z,12000
2018-10-16T13:30:03.276Z,24000
2018-10-16T13:35:02.617Z,16000
2018-10-16T13:40:02.892Z,13000
2018-10-16T13:45:03.063Z,11000
2018-10-16T13:50:02.897Z,28000
2018-10-16T13:55:02.857Z,8000
2018-10-16T14:00:02.552Z,9000
2018-10-16T14:05:03.552Z,13000
2018-10-16T14:10:02.982Z,6000
2018-10-16T14:15:03.027Z,10000
2018-10-16T14:20:02.751Z,23000
2018-10-16T14:25:02.687Z,15000
2018-10-16T14:30:03.278Z,10000
2018-10-16T14:35:02.934Z,10000
2018-10-16T14:40:02.756Z,19000
2018-10-16T14:45:02.937Z,12000
2018-10-16T14:50:02.661Z,10000
2018-10-16T14:55:02.650Z,8000
2018-10-16T15:00:03.264Z,5000
2018-10-16T15:05:02.935Z,7000
2018-10-16T15:10:03.088Z,4000
2018-10-16T15:15:02.716Z,4000
2018-10-16T15:20:03.490Z,5000
2018-10-16T15:25:02.434Z,3000
2018-10-16T15:30:02.952Z,5000
2018-10-16T15:35:02.789Z,5000
2018-10-16T15:40:02.685Z,2000
2018-10-16T15:45:02.782Z,1000
2018-10-16T15:50:02.588Z,1000
2018-10-16T15:55:02.779Z,1000
2018-10-16T16:00:02.520Z,1000
2018-10-16T16:05:02.741Z,921
2018-10-16T16:10:02.574Z,650
2018-10-16T16:15:02.688Z,581
2018-10-16T16:20:03.508Z,619
2018-10-16T16:25:02.793Z,568
2018-10-16T16:30:02.550Z,437
2018-10-16T16:35:02.997Z,311
2018-10-16T16:40:03.235Z,189
2018-10-16T16:45:03.308Z,78
2018-10-16T16:50:03.123Z,54
2018-10-16T16:55:03.152Z,26
2018-10-16T17:00:02.786Z,14
2018-10-16T17:05:02.371Z,12
2018-10-16T17:10:03.286Z,5
2018-10-16T17:15:03.260Z,1
2018-10-16T17:20:03.016Z,1
2018-10-16T17:25:03.347Z,0
2018-10-16T17:30:03.175Z,0
2018-10-16T17:35:02.786Z,0
2018-10-16T17:40:02.404Z,0
2018-10-16T17:45:03.175Z,0
2018-10-16T17:50:03.126Z,0
2018-10-16T17:55:02.736Z,0
2018-10-16T18:00:03.323Z,0
2018-10-16T18:05:02.982Z,0
2018-10-16T18:10:02.623Z,0
2018-10-16T18:15:03.445Z,0
2018-10-16T18:20:02.398Z,0
2018-10-16T18:25:02.995Z,0
2018-10-16T18:30:02.695Z,0
2018-10-16T18:35:03.297Z,0
2018-10-16T18:40:03.127Z,0
2018-10-16T18:45:02.575Z,0
2018-10-16T18:50:02.630Z,0
2018-10-16T18:55:03.269Z,0
2018-10-16T19:00:02.823Z,0
2018-10-16T19:05:02.465Z,0
2018-10-16T19:10:03.217Z,0
2018-10-16T19:15:03.000Z,0
2018-10-16T19:20:03.314Z,0
2018-10-16T19:25:02.351Z,0
2018-10-16T19:30:02.934Z,0
2018-10-16T19:35:02.586Z,0
2018-10-16T19:40:03.253Z,0
2018-10-16T19:45:02.957Z,0
2018-10-16T19:50:03.087Z,0
2018-10-16T19:55:02.696Z,0
2018-10-16T20:00:03.518Z,0
2018-10-16T20:05:03.320Z,0
2018-10-16T20:10:02.942Z,0
2018-10-16T20:15:02.600Z,0
2018-10-16T20:20:03.263Z,0
2018-10-16T20:25:02.921Z,0
2018-10-16T20:30:02.845Z,0
2018-10-16T20:35:02.445Z,0
2018-10-16T20:40:03.219Z,0
2018-10-16T20:45:02.852Z,0
2018-10-16T20:50:02.649Z,0
2018-10-16T20:55:03.447Z,0
2018-10-16T21:00:03.294Z,0
2018-10-16T21:05:03.558Z,0
2018-10-16T21:10:03.082Z,0
2018-10-16T21:15:02.607Z,0
2018-10-16T21:20:03.221Z,0
2018-10-16T21:25:03.119Z,0
2018-10-16T21:30:03.274Z,0
2018-10-16T21:35:03.045Z,0
2018-10-16T21:40:02.886Z,0
2018-10-16T21:45:02.403Z,0
2018-10-16T21:50:02.931Z,0
2018-10-16T21:55:02.720Z,0
2018-10-16T22:00:02.689Z,0
2018-10-16T22:05:03.496Z,0
2018-10-16T22:10:02.543Z,0
2018-10-16T22:15:03.281Z,0
2018-10-16T22:20:03.141Z,0
2018-10-16T22:25:02.950Z,0
2018-10-16T22:30:03.086Z,0
2018-10-16T22:35:02.841Z,0
2018-10-16T22:40:03.077Z,0
2018-10-16T22:45:02.622Z,0
2018-10-16T22:50:03.269Z,0
2018-10-16T22:55:02.972Z,0
2018-10-16T23:00:02.943Z,0
2018-10-16T23:05:02.629Z,0
2018-10-16T23:10:02.735Z,0
2018-10-16T23:15:03.325Z,0
2018-10-16T23:20:02.889Z,0
2018-10-16T23:25:02.682Z,0
2018-10-16T23:30:02.775Z,0
2018-10-16T23:35:02.578Z,0
2018-10-16T23:40:02.703Z,0
2018-10-16T23:45:03.306Z,0
2018-10-16T23:50:02.860Z,0
2018-10-16T23:55:02.653Z,0
